Time;durP1;ratioP1;P1;durP2;ratioP2;P2;SDS_P1;SDS_P2;PMS_P1;PMS_P2;Temp;Humidity;BMP_temperature;BMP_pressure;BME280_temperature;BME280_humidity;BME280_pressure;Samples;Min_cycle;Max_cycle;Signal;HPM_P1;HPM_P2
2022/07/12 00:04:19;;;;;;;6.20;4.40;;;;;16.50;101929.00;;;;10468490;28;20280;-80
2022/07/12 00:09:21;;;;;;;5.80;4.37;;;;;16.40;101920.00;;;;10399308;28;20206;-80
2022/07/12 00:14:28;;;;;;;5.03;4.50;;;;;16.20;101921.00;;;;10453740;28;20201;-80
2022/07/12 00:19:32;;;;;;;5.93;4.43;;;;;16.10;101908.00;;;;10416482;28;20209;-80
2022/07/12 00:24:34;;;;;;;4.37;3.97;;;;;16.00;101904.00;;;;10445357;28;20249;-81
2022/07/12 00:29:36;;;;;;;7.10;5.57;;;;;16.00;101908.00;;;;10426115;28;20719;-80
2022/07/12 00:34:38;;;;;;;7.67;6.37;;;;;16.00;101912.00;;;;10439022;28;20194;-80
2022/07/12 00:39:40;;;;;;;8.57;5.93;;;;;16.00;101903.00;;;;10434313;28;20218;-80
2022/07/12 00:44:45;;;;;;;6.20;5.60;;;;;15.90;101887.00;;;;10438985;28;20288;-78
2022/07/12 00:49:50;;;;;;;8.90;6.53;;;;;15.90;101885.00;;;;10412354;28;20288;-77
2022/07/12 00:54:52;;;;;;;5.77;5.27;;;;;15.90;101885.00;;;;10418749;28;20205;-77
2022/07/12 00:59:54;;;;;;;7.27;6.57;;;;;15.80;101894.00;;;;10459651;28;20221;-78
2022/07/12 01:04:57;;;;;;;6.03;5.53;;;;;15.70;101890.00;;;;10463749;28;20212;-78
2022/07/12 01:10:00;;;;;;;5.70;5.17;;;;;15.60;101888.00;;;;10429775;28;20206;-78
2022/07/12 01:15:06;;;;;;;5.63;5.03;;;;;15.50;101885.00;;;;10438849;28;20185;-78
2022/07/12 01:20:08;;;;;;;6.73;6.10;;;;;15.50;101884.00;;;;10390157;28;20273;-77
2022/07/12 01:25:10;;;;;;;9.40;6.37;;;;;15.50;101880.00;;;;10449825;28;20280;-77
2022/07/12 01:30:12;;;;;;;6.97;6.37;;;;;15.40;101877.00;;;;10450399;28;20812;-77
2022/07/12 01:35:18;;;;;;;8.73;6.30;;;;;15.40;101864.00;;;;10439156;28;20222;-78
2022/07/12 01:40:20;;;;;;;8.87;7.60;;;;;15.40;101872.00;;;;10433806;28;20300;-78
2022/07/12 01:45:22;;;;;;;7.20;6.60;;;;;15.40;101861.00;;;;10437650;28;20206;-77
2022/07/12 01:50:27;;;;;;;7.03;6.40;;;;;15.50;101872.00;;;;10446055;28;20262;-77
2022/07/12 01:55:31;;;;;;;7.23;6.50;;;;;15.50;101859.00;;;;10428759;28;20196;-78
2022/07/12 02:00:35;;;;;;;7.73;6.30;;;;;15.50;101851.00;;;;10413221;28;20584;-77
2022/07/12 02:05:37;;;;;;;7.70;6.30;;;;;15.50;101870.00;;;;10423476;28;20774;-78
2022/07/12 02:10:40;;;;;;;6.63;6.03;;;;;15.40;101865.00;;;;10421092;28;20542;-77
2022/07/12 02:15:42;;;;;;;6.77;6.17;;;;;15.30;101869.00;;;;10427191;28;20220;-78
2022/07/12 02:20:44;;;;;;;8.33;5.70;;;;;15.20;101871.00;;;;10426950;28;20221;-78
2022/07/12 02:25:46;;;;;;;7.33;6.63;;;;;15.10;101863.00;;;;10442624;28;20202;-77
2022/07/12 02:30:48;;;;;;;10.77;6.17;;;;;14.90;101864.00;;;;10459174;28;20197;-77
2022/07/12 02:35:50;;;;;;;6.40;5.80;;;;;14.80;101872.00;;;;10426041;28;20198;-77
2022/07/12 02:40:55;;;;;;;8.97;6.93;;;;;14.70;101863.00;;;;10443276;28;20679;-77
2022/07/12 02:46:05;;;;;;;7.47;6.70;;;;;14.70;101873.00;;;;10458531;28;20395;-77
2022/07/12 02:51:08;;;;;;;8.27;7.47;;;;;14.60;101870.00;;;;10459049;28;20208;-77
2022/07/12 02:56:11;;;;;;;8.27;7.43;;;;;14.50;101878.00;;;;10434852;28;20687;-77
2022/07/12 03:01:14;;;;;;;9.10;7.20;;;;;14.50;101876.00;;;;10439147;28;20222;-78
2022/07/12 03:06:16;;;;;;;9.30;7.73;;;;;14.50;101884.00;;;;10458082;28;20194;-78
2022/07/12 03:11:18;;;;;;;9.43;8.43;;;;;14.50;101879.00;;;;10458319;28;20216;-77
2022/07/12 03:16:20;;;;;;;10.87;7.60;;;;;14.70;101879.00;;;;10439864;28;20213;-77
2022/07/12 03:21:22;;;;;;;8.33;7.40;;;;;14.60;101878.00;;;;10441306;28;20209;-77
2022/07/12 03:26:24;;;;;;;8.70;7.67;;;;;14.50;101875.00;;;;10455677;28;20231;-77
2022/07/12 03:31:26;;;;;;;7.80;7.03;;;;;14.50;101865.00;;;;10449787;28;20210;-77
2022/07/12 03:36:29;;;;;;;8.83;7.57;;;;;14.40;101876.00;;;;10432329;28;20236;-78
2022/07/12 03:41:31;;;;;;;9.90;8.23;;;;;14.40;101876.00;;;;10420538;28;20213;-77
2022/07/12 03:46:33;;;;;;;10.27;7.80;;;;;14.30;101881.00;;;;10422333;28;20209;-77
2022/07/12 03:51:35;;;;;;;9.73;8.07;;;;;14.30;101882.00;;;;10447944;28;20228;-77
2022/07/12 04:01:57;;;;;;;10.23;7.77;;;;;14.30;101891.00;;;;10415939;28;20275;-77
2022/07/12 04:07:00;;;;;;;14.80;8.93;;;;;14.40;101886.00;;;;10394840;28;20201;-77
2022/07/12 04:12:05;;;;;;;11.97;8.23;;;;;14.40;101886.00;;;;10429117;28;20233;-77
2022/07/12 04:17:07;;;;;;;10.33;8.30;;;;;14.40;101890.00;;;;10424984;28;20225;-78
2022/07/12 04:22:09;;;;;;;8.10;7.30;;;;;14.70;101895.00;;;;10438089;28;20221;-78
2022/07/12 04:27:11;;;;;;;8.83;7.93;;;;;14.90;101890.00;;;;10413892;28;20288;-78
2022/07/12 04:32:13;;;;;;;8.80;7.90;;;;;15.20;101896.00;;;;10406738;28;20194;-77
2022/07/12 04:37:15;;;;;;;8.30;7.50;;;;;15.40;101894.00;;;;10435330;28;20222;-78
2022/07/12 04:42:19;;;;;;;9.10;8.20;;;;;15.60;101893.00;;;;10434740;28;20221;-78
2022/07/12 04:47:21;;;;;;;10.93;7.23;;;;;15.70;101887.00;;;;10461346;28;20380;-78
2022/07/12 04:52:23;;;;;;;9.57;8.10;;;;;15.80;101897.00;;;;10414275;28;20195;-77
2022/07/12 04:57:25;;;;;;;8.50;7.70;;;;;16.00;101889.00;;;;10429952;28;20328;-77
2022/07/12 05:02:27;;;;;;;8.43;7.50;;;;;16.50;101893.00;;;;10421307;28;20237;-78
2022/07/12 05:07:29;;;;;;;8.73;7.83;;;;;17.10;101898.00;;;;10453289;28;20247;-77
2022/07/12 05:12:31;;;;;;;9.87;7.47;;;;;17.20;101913.00;;;;10431056;28;20280;-78
2022/07/12 05:17:33;;;;;;;8.00;7.30;;;;;17.40;101909.00;;;;10436805;28;20189;-77
2022/07/12 05:22:35;;;;;;;9.82;7.90;;;;;17.70;101915.00;;;;10469824;28;20226;-77
2022/07/12 05:27:37;;;;;;;12.15;6.90;;;;;18.10;101926.00;;;;10454075;28;20665;-78
2022/07/12 05:32:40;;;;;;;7.70;7.10;;;;;18.20;101921.00;;;;10442238;28;20777;-77
2022/07/12 05:37:42;;;;;;;8.30;7.30;;;;;18.50;101924.00;;;;10478360;28;20593;-78
2022/07/12 05:42:44;;;;;;;9.07;7.95;;;;;18.90;101928.00;;;;10452418;28;20221;-78
2022/07/12 05:47:51;;;;;;;12.15;7.55;;;;;19.40;101931.00;;;;10419244;28;20214;-78
2022/07/12 05:58:13;;;;;;;9.30;6.90;;;;;20.00;101937.00;;;;10451818;28;20217;-77
2022/07/12 06:03:16;;;;;;;7.80;7.10;;;;;20.10;101938.00;;;;10471738;28;20220;-78
2022/07/12 06:08:18;;;;;;;7.43;6.15;;;;;20.60;101938.00;;;;10442846;28;20259;-77
2022/07/12 06:13:20;;;;;;;6.65;6.05;;;;;21.20;101947.00;;;;10438534;28;20198;-78
2022/07/12 06:18:22;;;;;;;8.45;6.70;;;;;21.70;101944.00;;;;10436867;28;20614;-78
2022/07/12 06:23:24;;;;;;;7.20;6.35;;;;;22.20;101947.00;;;;10458422;28;20695;-78
2022/07/12 06:28:26;;;;;;;9.38;6.65;;;;;22.50;101944.00;;;;10483541;28;20194;-78
2022/07/12 06:33:28;;;;;;;7.68;6.88;;;;;22.60;101946.00;;;;10441790;28;20634;-78
2022/07/12 06:38:31;;;;;;;7.65;6.95;;;;;22.80;101944.00;;;;10415899;28;20792;-78
2022/07/12 06:43:42;;;;;;;12.18;8.00;;;;;23.30;101941.00;;;;10403182;28;20284;-78
2022/07/12 06:48:47;;;;;;;7.68;7.03;;;;;23.80;101938.00;;;;10428165;28;20203;-78
2022/07/12 06:53:49;;;;;;;8.10;7.40;;;;;24.10;101947.00;;;;10468459;28;20201;-78
2022/07/12 06:58:54;;;;;;;8.77;7.97;;;;;24.50;101949.00;;;;10456030;28;20272;-75
2022/07/12 07:04:37;;;;;;;8.23;7.28;;;;;24.80;101951.00;;;;10442984;28;20894;-78
2022/07/12 07:09:45;;;;;;;8.25;7.30;;;;;25.20;101947.00;;;;10438487;28;20325;-76
2022/07/12 07:14:48;;;;;;;8.18;7.50;;;;;25.50;101951.00;;;;10409978;28;20758;-76
2022/07/12 07:19:50;;;;;;;7.57;6.93;;;;;25.80;101959.00;;;;10408723;28;21011;-76
2022/07/12 07:24:53;;;;;;;8.07;7.15;;;;;26.30;101953.00;;;;10414960;28;20222;-76
2022/07/12 07:35:16;;;;;;;8.38;6.40;;;;;27.30;101954.00;;;;10445287;28;20197;-76
2022/07/12 07:40:18;;;;;;;7.10;6.25;;;;;27.90;101961.00;;;;10421828;28;20252;-76
2022/07/12 07:45:20;;;;;;;7.97;7.18;;;;;27.80;101962.00;;;;10440395;28;20206;-76
2022/07/12 07:50:22;;;;;;;6.97;6.38;;;;;27.50;101961.00;;;;10402817;28;20201;-76
2022/07/12 07:55:24;;;;;;;6.78;6.28;;;;;27.90;101957.00;;;;10412664;28;20209;-76
2022/07/12 08:00:27;;;;;;;6.28;5.65;;;;;28.50;101949.00;;;;10421245;28;20226;-76
2022/07/12 08:05:29;;;;;;;6.82;6.13;;;;;29.10;101951.00;;;;10411326;28;20224;-76
2022/07/12 08:10:31;;;;;;;6.25;5.75;;;;;29.70;101952.00;;;;10462708;28;20213;-77
2022/07/12 08:15:34;;;;;;;6.82;5.97;;;;;29.50;101950.00;;;;10429498;28;20210;-77
2022/07/12 08:20:36;;;;;;;6.65;6.05;;;;;29.20;101945.00;;;;10416116;28;20194;-77
2022/07/12 08:25:48;;;;;;;5.53;5.13;;;;;29.50;101937.00;;;;10424288;28;20704;-77
2022/07/12 08:30:50;;;;;;;4.80;4.45;;;;;30.20;101933.00;;;;10454959;28;20213;-77
2022/07/12 08:35:52;;;;;;;5.90;5.43;;;;;30.70;101925.00;;;;10427508;28;20288;-77
2022/07/12 08:40:55;;;;;;;6.60;5.03;;;;;31.00;101926.00;;;;10436436;28;20226;-76
2022/07/12 08:46:22;;;;;;;5.20;4.65;;;;;31.00;101926.00;;;;10451964;28;20661;-76
2022/07/12 08:51:24;;;;;;;5.03;4.63;;;;;31.30;101925.00;;;;10431020;28;20202;-76
2022/07/12 08:56:48;;;;;;;4.90;4.32;;;;;31.60;101920.00;;;;10406579;28;20198;-76
2022/07/12 09:01:52;;;;;;;4.75;4.35;;;;;32.50;101927.00;;;;10422672;28;20644;-76
2022/07/12 09:06:55;;;;;;;4.40;4.00;;;;;32.80;101932.00;;;;10424569;28;20193;-76
2022/07/12 09:11:59;;;;;;;4.90;4.45;;;;;33.00;101929.00;;;;10427205;28;20260;-77
2022/07/12 09:17:09;;;;;;;4.55;4.07;;;;;33.40;101937.00;;;;10462785;28;20439;-77
2022/07/12 09:22:19;;;;;;;7.00;4.32;;;;;33.20;101937.00;;;;10416909;28;20315;-77
2022/07/12 09:27:25;;;;;;;4.47;4.18;;;;;33.00;101944.00;;;;10468211;28;20202;-76
2022/07/12 09:37:48;;;;;;;4.15;3.85;;;;;33.70;101951.00;;;;10434066;28;20255;-76
2022/07/12 09:42:51;;;;;;;4.63;4.22;;;;;33.10;101950.00;;;;10432763;28;20224;-77
2022/07/12 09:47:55;;;;;;;5.05;4.03;;;;;33.60;101941.00;;;;10399104;28;20280;-76
2022/07/12 09:52:59;;;;;;;6.97;3.90;;;;;34.10;101929.00;;;;10415601;28;20580;-77
2022/07/12 09:58:02;;;;;;;6.05;3.72;;;;;34.50;101933.00;;;;10436747;28;20307;-77
2022/07/12 10:03:07;;;;;;;3.65;3.30;;;;;34.60;101934.00;;;;10466660;28;20680;-76
2022/07/12 10:08:09;;;;;;;4.05;3.30;;;;;34.60;101935.00;;;;10469962;28;20244;-76
2022/07/12 10:13:12;;;;;;;4.40;3.90;;;;;34.80;101935.00;;;;10472494;28;20236;-76
2022/07/12 10:18:19;;;;;;;3.90;3.30;;;;;35.70;101936.00;;;;10456520;28;20197;-77
2022/07/12 10:23:28;;;;;;;6.32;3.45;;;;;35.90;101940.00;;;;10458641;28;20224;-77
2022/07/12 10:29:04;;;;;;;3.95;3.53;;;;;35.90;101940.00;;;;10491147;28;21073;-76
2022/07/12 10:34:35;;;;;;;4.82;3.88;;;;;35.10;101937.00;;;;10444360;28;20213;-76
2022/07/12 10:39:38;;;;;;;5.07;4.03;;;;;34.80;101939.00;;;;10472501;28;20619;-76
2022/07/12 10:44:45;;;;;;;4.05;3.45;;;;;34.90;101949.00;;;;10455874;28;20289;-76
2022/07/12 10:49:49;;;;;;;3.20;2.90;;;;;35.20;101939.00;;;;10472525;28;20193;-76
2022/07/12 10:54:55;;;;;;;4.30;3.90;;;;;35.30;101928.00;;;;10409170;28;20206;-76
2022/07/12 10:59:58;;;;;;;3.75;3.30;;;;;35.10;101915.00;;;;10432738;28;20217;-76
2022/07/12 11:05:00;;;;;;;3.30;3.00;;;;;35.50;101917.00;;;;10489646;28;20303;-76
2022/07/12 11:10:03;;;;;;;3.88;3.47;;;;;35.60;101909.00;;;;10471692;28;20209;-77
2022/07/12 11:15:06;;;;;;;4.78;3.20;;;;;35.90;101903.00;;;;10429022;28;20666;-76
2022/07/12 11:20:09;;;;;;;4.15;2.80;;;;;36.80;101914.00;;;;10447091;28;20206;-76
2022/07/12 11:25:12;;;;;;;3.60;2.45;;;;;36.20;101915.00;;;;10438011;28;20481;-77
2022/07/12 11:30:16;;;;;;;3.55;2.67;;;;;36.40;101899.00;;;;10436318;28;20285;-77
2022/07/12 11:35:23;;;;;;;3.08;2.75;;;;;36.30;101881.00;;;;10417010;28;20300;-78
2022/07/12 11:40:27;;;;;;;3.13;2.42;;;;;36.00;101890.00;;;;10450505;28;20565;-77
2022/07/12 11:45:33;;;;;;;2.75;2.00;;;;;35.70;101890.00;;;;10421792;28;20221;-77
2022/07/12 11:50:36;;;;;;;3.03;2.45;;;;;36.40;101882.00;;;;10452382;28;20206;-77
2022/07/12 11:55:55;;;;;;;2.75;2.55;;;;;36.70;101880.00;;;;10451724;28;20198;-77
2022/07/12 12:00:58;;;;;;;4.03;2.55;;;;;36.90;101872.00;;;;10439081;28;20616;-77
2022/07/12 12:06:00;;;;;;;2.92;2.10;;;;;37.80;101877.00;;;;10418485;28;20450;-77
2022/07/12 12:11:03;;;;;;;2.53;2.40;;;;;38.00;101871.00;;;;10456738;28;20212;-77
2022/07/12 12:16:05;;;;;;;5.18;2.75;;;;;38.50;101875.00;;;;10456247;28;20189;-77
2022/07/12 12:21:10;;;;;;;3.58;2.55;;;;;38.90;101870.00;;;;10436074;28;20193;-77
2022/07/12 12:26:17;;;;;;;4.03;3.08;;;;;38.60;101863.00;;;;10462064;28;20244;-77
2022/07/12 12:31:21;;;;;;;2.78;2.58;;;;;38.20;101869.00;;;;10422162;28;20675;-77
2022/07/12 12:36:29;;;;;;;3.08;1.95;;;;;38.60;101857.00;;;;10418583;28;20836;-77
2022/07/12 12:41:40;;;;;;;3.38;2.33;;;;;38.70;101859.00;;;;10445044;28;20221;-77
2022/07/12 12:52:19;;;;;;;2.83;2.47;;;;;38.80;101854.00;;;;10473347;28;20201;-78
2022/07/12 12:57:24;;;;;;;3.22;2.38;;;;;39.10;101856.00;;;;10467756;28;20262;-78
2022/07/12 13:02:26;;;;;;;2.30;2.10;;;;;38.60;101838.00;;;;10459455;28;20217;-78
2022/07/12 13:07:28;;;;;;;3.17;2.40;;;;;37.90;101839.00;;;;10470993;28;20193;-78
2022/07/12 13:12:31;;;;;;;2.80;2.60;;;;;38.30;101849.00;;;;10435814;28;20821;-78
2022/07/12 13:17:33;;;;;;;4.03;2.45;;;;;38.10;101844.00;;;;10476964;28;20201;-78
2022/07/12 13:22:36;;;;;;;2.47;2.38;;;;;37.70;101845.00;;;;10439082;28;21021;-78
2022/07/12 13:27:40;;;;;;;2.53;2.33;;;;;37.30;101847.00;;;;10427810;28;20658;-78
2022/07/12 13:32:43;;;;;;;2.20;2.00;;;;;37.00;101832.00;;;;10439124;28;20221;-78
2022/07/12 13:37:45;;;;;;;2.08;1.98;;;;;36.60;101833.00;;;;10428287;28;20197;-78
2022/07/12 13:42:55;;;;;;;1.95;1.83;;;;;36.40;101830.00;;;;10452496;28;20568;-78
2022/07/12 13:48:00;;;;;;;1.80;1.70;;;;;36.70;101820.00;;;;10428932;28;20209;-76
2022/07/12 13:53:02;;;;;;;2.58;2.30;;;;;36.70;101811.00;;;;10428964;28;20225;-78
2022/07/12 13:58:06;;;;;;;2.58;2.17;;;;;36.80;101799.00;;;;10436103;28;20264;-78
2022/07/12 14:03:08;;;;;;;2.33;2.10;;;;;37.20;101796.00;;;;10438271;28;20194;-77
2022/07/12 14:08:11;;;;;;;3.13;1.75;;;;;38.10;101796.00;;;;10460224;28;20850;-77
2022/07/12 14:13:13;;;;;;;2.55;2.17;;;;;39.70;101793.00;;;;10453852;28;20278;-78
2022/07/12 14:18:16;;;;;;;2.63;2.25;;;;;41.50;101783.00;;;;10458136;28;20190;-78
2022/07/12 14:23:18;;;;;;;2.80;1.70;;;;;42.20;101781.00;;;;10434232;28;20194;-78
2022/07/12 14:28:20;;;;;;;2.83;2.20;;;;;43.20;101777.00;;;;10452650;28;20225;-78
2022/07/12 14:33:22;;;;;;;3.15;2.47;;;;;43.70;101777.00;;;;10467329;28;20274;-77
2022/07/12 14:38:25;;;;;;;2.13;1.92;;;;;43.90;101777.00;;;;10445235;28;20193;-78
2022/07/12 14:43:27;;;;;;;3.28;2.20;;;;;44.20;101778.00;;;;10441705;28;20549;-78
2022/07/12 14:48:29;;;;;;;2.20;2.00;;;;;44.70;101772.00;;;;10433512;28;20259;-77
2022/07/12 14:53:31;;;;;;;3.53;2.38;;;;;43.50;101783.00;;;;10450772;28;20225;-77
2022/07/12 14:58:33;;;;;;;4.00;2.28;;;;;43.20;101770.00;;;;10462888;28;20275;-77
2022/07/12 15:03:35;;;;;;;2.25;2.05;;;;;43.60;101762.00;;;;10446137;28;20579;-77
2022/07/12 15:08:37;;;;;;;3.40;2.05;;;;;42.80;101766.00;;;;10471752;28;20190;-77
2022/07/12 15:13:41;;;;;;;2.38;1.80;;;;;42.70;101753.00;;;;10435281;28;20251;-77
2022/07/12 15:18:46;;;;;;;1.85;1.73;;;;;41.00;101754.00;;;;10440669;28;20221;-77
2022/07/12 15:23:49;;;;;;;3.42;2.22;;;;;41.20;101742.00;;;;10431049;28;20183;-77
2022/07/12 15:28:57;;;;;;;3.03;1.98;;;;;41.40;101747.00;;;;10431560;28;20199;-77
2022/07/12 15:34:00;;;;;;;3.55;2.13;;;;;41.50;101726.00;;;;10457062;28;20225;-77
2022/07/12 15:39:02;;;;;;;2.65;2.45;;;;;40.00;101734.00;;;;10415273;28;20194;-77
2022/07/12 15:44:04;;;;;;;2.97;2.50;;;;;37.90;101725.00;;;;10457860;28;20185;-77
2022/07/12 15:49:08;;;;;;;3.75;2.42;;;;;36.90;101725.00;;;;10426953;28;20195;-77
2022/07/12 15:54:10;;;;;;;2.30;2.10;;;;;36.60;101718.00;;;;10461566;28;20225;-77
2022/07/12 15:59:12;;;;;;;2.45;2.28;;;;;35.90;101714.00;;;;10456265;28;20221;-77
2022/07/12 16:04:15;;;;;;;2.22;2.03;;;;;35.30;101714.00;;;;10415549;28;20201;-77
2022/07/12 16:09:18;;;;;;;3.00;2.35;;;;;34.60;101713.00;;;;10451928;28;20194;-78
2022/07/12 16:14:20;;;;;;;3.72;2.38;;;;;34.40;101712.00;;;;10469938;28;20603;-77
2022/07/12 16:19:26;;;;;;;2.45;2.25;;;;;34.30;101705.00;;;;10474008;28;20264;-77
2022/07/12 16:24:28;;;;;;;2.58;2.15;;;;;34.30;101706.00;;;;10464273;28;20273;-77
2022/07/12 16:29:33;;;;;;;2.78;2.00;;;;;34.30;101709.00;;;;10399635;28;20294;-77
2022/07/12 16:34:35;;;;;;;2.00;1.90;;;;;34.00;101708.00;;;;10436210;28;20224;-78
2022/07/12 16:39:38;;;;;;;2.88;2.08;;;;;33.60;101701.00;;;;10456059;28;20212;-77
2022/07/12 16:44:41;;;;;;;3.47;1.95;;;;;33.40;101699.00;;;;10433145;28;20269;-78
2022/07/12 16:49:43;;;;;;;2.80;2.00;;;;;33.00;101703.00;;;;10425106;28;20190;-77
2022/07/12 16:54:45;;;;;;;3.08;1.60;;;;;32.80;101706.00;;;;10430563;28;20206;-77
2022/07/12 16:59:54;;;;;;;1.83;1.40;;;;;32.50;101707.00;;;;10428026;28;20221;-77
2022/07/12 17:04:56;;;;;;;1.48;1.33;;;;;32.40;101709.00;;;;10434537;28;20189;-77
2022/07/12 17:09:58;;;;;;;2.75;1.25;;;;;32.30;101710.00;;;;10463930;28;20652;-77
2022/07/12 17:15:01;;;;;;;1.50;1.40;;;;;32.10;101708.00;;;;10414623;28;20316;-77
2022/07/12 17:20:04;;;;;;;2.58;1.38;;;;;32.00;101711.00;;;;10427762;28;20668;-77
2022/07/12 17:25:07;;;;;;;3.45;1.70;;;;;32.00;101703.00;;;;10471624;28;20247;-77
2022/07/12 17:30:15;;;;;;;1.55;1.45;;;;;31.90;101700.00;;;;10456124;28;20710;-77
2022/07/12 17:35:20;;;;;;;1.58;1.27;;;;;31.80;101712.00;;;;10428901;28;20205;-77
2022/07/12 17:40:23;;;;;;;1.58;1.45;;;;;31.30;101709.00;;;;10442754;28;20189;-77
2022/07/12 17:45:25;;;;;;;3.92;1.40;;;;;31.00;101710.00;;;;10453067;28;20301;-78
2022/07/12 17:50:28;;;;;;;2.28;1.42;;;;;30.70;101717.00;;;;10456371;28;20197;-77
2022/07/12 17:55:30;;;;;;;3.03;1.50;;;;;30.30;101715.00;;;;10447702;28;20629;-78
2022/07/12 18:00:32;;;;;;;5.72;1.55;;;;;30.10;101701.00;;;;10447493;28;20676;-77
2022/07/12 18:05:34;;;;;;;1.92;1.50;;;;;29.80;101709.00;;;;10467632;28;20193;-77
2022/07/12 18:10:37;;;;;;;2.97;1.92;;;;;29.40;101705.00;;;;10434168;28;20197;-77
2022/07/12 18:15:39;;;;;;;5.00;2.13;;;;;29.20;101700.00;;;;10432160;28;20611;-78
2022/07/12 18:20:41;;;;;;;2.88;2.63;;;;;29.10;101706.00;;;;10429423;28;20198;-77
2022/07/12 18:25:44;;;;;;;3.40;2.33;;;;;29.00;101693.00;;;;10433915;28;20208;-77
2022/07/12 18:30:52;;;;;;;2.08;1.75;;;;;28.90;101694.00;;;;10458782;28;20202;-77
2022/07/12 18:36:06;;;;;;;2.13;1.80;;;;;28.70;101690.00;;;;10449700;28;20214;-77
2022/07/12 18:41:11;;;;;;;2.42;2.08;;;;;28.40;101684.00;;;;10420178;28;20297;-77
2022/07/12 18:46:22;;;;;;;5.32;1.90;;;;;28.20;101696.00;;;;10463474;28;20222;-77
2022/07/12 18:51:33;;;;;;;1.63;1.48;;;;;28.00;101689.00;;;;10470967;28;20248;-77
2022/07/12 18:56:35;;;;;;;2.97;1.98;;;;;27.80;101688.00;;;;10444761;28;20233;-77
2022/07/12 19:01:37;;;;;;;4.45;1.92;;;;;27.70;101686.00;;;;10440204;28;20283;-77
2022/07/12 19:06:39;;;;;;;2.33;1.60;;;;;27.60;101678.00;;;;10463776;28;20189;-77
2022/07/12 19:11:41;;;;;;;3.88;2.00;;;;;27.40;101673.00;;;;10424795;28;20191;-78
2022/07/12 19:16:46;;;;;;;2.63;1.73;;;;;27.20;101671.00;;;;10462082;28;20202;-77
2022/07/12 19:21:55;;;;;;;4.10;1.67;;;;;27.10;101674.00;;;;10437462;28;20190;-77
2022/07/12 19:26:57;;;;;;;4.95;1.75;;;;;26.90;101668.00;;;;10438315;28;20217;-77
2022/07/12 19:31:59;;;;;;;1.63;1.52;;;;;26.80;101670.00;;;;10451645;28;20286;-77
2022/07/12 19:37:01;;;;;;;57.15;5.22;;;;;26.70;101672.00;;;;10444574;28;20225;-76
2022/07/12 19:42:03;;;;;;;7.05;3.08;;;;;26.50;101661.00;;;;10426501;28;20193;-77
2022/07/12 19:47:07;;;;;;;3.88;2.42;;;;;26.30;101662.00;;;;10454483;28;20264;-77
2022/07/12 19:52:09;;;;;;;8.57;1.95;;;;;26.00;101650.00;;;;10433563;28;20285;-77
2022/07/12 19:57:11;;;;;;;4.90;2.17;;;;;25.70;101654.00;;;;10446429;28;20213;-77
2022/07/12 20:02:13;;;;;;;6.80;2.85;;;;;25.60;101657.00;;;;10418890;28;20222;-78
2022/07/12 20:07:15;;;;;;;2.40;2.20;;;;;25.60;101665.00;;;;10433188;28;20204;-78
2022/07/12 20:12:19;;;;;;;5.32;2.28;;;;;25.60;101664.00;;;;10422923;28;20190;-77
2022/07/12 20:17:22;;;;;;;4.35;2.35;;;;;25.60;101668.00;;;;10482135;28;20181;-77
2022/07/12 20:22:24;;;;;;;7.22;2.55;;;;;25.60;101662.00;;;;10433323;28;20599;-77
2022/07/12 20:27:26;;;;;;;7.00;2.53;;;;;25.50;101663.00;;;;10465565;28;20232;-77
2022/07/12 20:32:28;;;;;;;18.60;2.97;;;;;25.50;101651.00;;;;10442848;28;20210;-77
2022/07/12 20:37:30;;;;;;;9.63;2.30;;;;;25.40;101662.00;;;;10440861;28;21468;-77
2022/07/12 20:42:32;;;;;;;3.85;2.30;;;;;25.50;101671.00;;;;10463113;28;20638;-77
2022/07/12 20:47:34;;;;;;;5.88;2.67;;;;;25.50;101664.00;;;;10463903;28;20186;-77
2022/07/12 20:52:36;;;;;;;6.78;1.98;;;;;25.40;101671.00;;;;10447843;28;20708;-77
2022/07/12 20:57:40;;;;;;;4.45;2.40;;;;;25.30;101669.00;;;;10439560;28;20202;-77
2022/07/12 21:02:42;;;;;;;7.60;2.35;;;;;25.20;101670.00;;;;10449860;28;20205;-77
2022/07/12 21:07:51;;;;;;;10.15;4.60;;;;;24.90;101668.00;;;;10466215;28;20190;-77
2022/07/12 21:12:56;;;;;;;5.43;2.63;;;;;24.70;101667.00;;;;10432022;28;20268;-77
2022/07/12 21:17:59;;;;;;;3.10;2.05;;;;;24.70;101664.00;;;;10491676;28;20196;-77
2022/07/12 21:23:04;;;;;;;5.05;2.53;;;;;24.80;101672.00;;;;10468490;28;20233;-77
2022/07/12 21:28:10;;;;;;;3.80;2.13;;;;;24.80;101672.00;;;;10430497;28;20198;-77
2022/07/12 21:33:14;;;;;;;5.05;2.03;;;;;24.80;101674.00;;;;10449237;28;20263;-77
2022/07/12 21:38:17;;;;;;;2.20;2.00;;;;;24.70;101674.00;;;;10445049;28;20209;-77
2022/07/12 21:43:19;;;;;;;2.10;1.90;;;;;24.60;101674.00;;;;10430937;28;20636;-77
2022/07/12 21:48:22;;;;;;;4.68;2.33;;;;;24.50;101658.00;;;;10431865;28;20577;-77
2022/07/12 21:53:24;;;;;;;9.07;2.80;;;;;24.30;101669.00;;;;10448559;28;20217;-77
2022/07/12 21:58:26;;;;;;;4.05;2.47;;;;;24.20;101663.00;;;;10422437;28;20205;-77
2022/07/12 22:03:28;;;;;;;2.30;2.03;;;;;24.10;101653.00;;;;10458999;28;20648;-77
2022/07/12 22:08:30;;;;;;;7.32;2.20;;;;;24.20;101655.00;;;;10469589;28;20592;-77
2022/07/12 22:13:35;;;;;;;5.88;2.17;;;;;24.30;101654.00;;;;10436440;28;20289;-77
2022/07/12 22:18:38;;;;;;;3.35;2.00;;;;;24.40;101641.00;;;;10427811;28;20194;-77
2022/07/12 22:23:40;;;;;;;3.00;2.30;;;;;24.40;101640.00;;;;10456166;28;20268;-78
2022/07/12 22:28:41;;;;;;;4.93;2.75;;;;;24.40;101643.00;;;;10463281;28;20280;-78
2022/07/12 22:33:43;;;;;;;4.80;2.60;;;;;24.40;101638.00;;;;10445823;28;20309;-78
2022/07/12 22:38:46;;;;;;;3.47;2.40;;;;;24.30;101633.00;;;;10446697;28;20193;-78
2022/07/12 22:43:48;;;;;;;2.63;2.38;;;;;24.20;101638.00;;;;10439619;28;20658;-77
2022/07/12 22:48:50;;;;;;;3.20;2.38;;;;;24.00;101636.00;;;;10457532;28;20205;-77
2022/07/12 22:53:51;;;;;;;4.57;2.25;;;;;23.80;101634.00;;;;10465230;28;20216;-77
2022/07/12 22:58:53;;;;;;;5.80;2.33;;;;;23.70;101634.00;;;;10478584;28;20227;-77
2022/07/12 23:03:55;;;;;;;4.03;2.67;;;;;23.50;101633.00;;;;10445777;28;20284;-77
2022/07/12 23:08:58;;;;;;;3.75;2.10;;;;;23.40;101631.00;;;;10445791;28;20221;-77
2022/07/12 23:14:00;;;;;;;5.40;2.15;;;;;23.30;101626.00;;;;10463054;28;20198;-77
2022/07/12 23:19:02;;;;;;;6.32;2.47;;;;;23.30;101621.00;;;;10442150;28;20200;-77
2022/07/12 23:24:05;;;;;;;4.05;2.72;;;;;23.30;101608.00;;;;10461050;28;20193;-77
2022/07/12 23:29:07;;;;;;;3.30;2.35;;;;;23.20;101602.00;;;;10475199;28;20190;-77
2022/07/12 23:34:09;;;;;;;4.05;2.50;;;;;23.10;101613.00;;;;10434712;28;20260;-77
2022/07/12 23:39:11;;;;;;;4.78;2.10;;;;;23.00;101609.00;;;;10445396;28;20205;-77
2022/07/12 23:44:13;;;;;;;5.50;2.53;;;;;22.80;101607.00;;;;10461692;28;20556;-77
2022/07/12 23:49:15;;;;;;;2.47;2.20;;;;;22.70;101605.00;;;;10477481;28;20193;-77
2022/07/12 23:54:17;;;;;;;2.88;2.33;;;;;22.60;101592.00;;;;10452051;28;20696;-77
2022/07/12 23:59:19;;;;;;;2.97;2.67;;;;;22.50;101594.00;;;;10460954;28;20213;-77
